sensor_id;sensor_type;location;lat;lon;timestamp;P1;durP1;ratioP1;P2;durP2;ratioP2
69305;SDS011;56427;51.580;4.656;2023-08-07T00:02:03;8.77;;;1.70;;
69305;SDS011;56427;51.580;4.656;2023-08-07T00:04:29;9.30;;;1.85;;
69305;SDS011;56427;51.580;4.656;2023-08-07T00:06:54;5.30;;;1.60;;
69305;SDS011;56427;51.580;4.656;2023-08-07T00:09:19;10.50;;;1.80;;
69305;SDS011;56427;51.580;4.656;2023-08-07T00:11:45;7.23;;;2.20;;
69305;SDS011;56427;51.580;4.656;2023-08-07T00:14:10;8.87;;;1.90;;
69305;SDS011;56427;51.580;4.656;2023-08-07T00:16:35;13.52;;;2.30;;
69305;SDS011;56427;51.580;4.656;2023-08-07T00:19:03;9.73;;;1.87;;
69305;SDS011;56427;51.580;4.656;2023-08-07T00:21:29;9.48;;;2.28;;
69305;SDS011;56427;51.580;4.656;2023-08-07T00:23:54;14.40;;;2.70;;
69305;SDS011;56427;51.580;4.656;2023-08-07T00:26:20;12.20;;;2.47;;
69305;SDS011;56427;51.580;4.656;2023-08-07T00:28:45;15.27;;;2.30;;
69305;SDS011;56427;51.580;4.656;2023-08-07T00:31:11;10.83;;;2.10;;
69305;SDS011;56427;51.580;4.656;2023-08-07T00:33:37;11.02;;;2.30;;
69305;SDS011;56427;51.580;4.656;2023-08-07T00:36:03;16.37;;;3.17;;
69305;SDS011;56427;51.580;4.656;2023-08-07T00:38:28;9.50;;;2.35;;
69305;SDS011;56427;51.580;4.656;2023-08-07T00:40:54;12.77;;;2.47;;
69305;SDS011;56427;51.580;4.656;2023-08-07T00:43:19;12.37;;;2.63;;
69305;SDS011;56427;51.580;4.656;2023-08-07T00:45:46;18.02;;;2.50;;
69305;SDS011;56427;51.580;4.656;2023-08-07T00:48:12;8.63;;;2.17;;
69305;SDS011;56427;51.580;4.656;2023-08-07T00:50:40;12.35;;;2.50;;
69305;SDS011;56427;51.580;4.656;2023-08-07T00:53:07;10.15;;;2.05;;
69305;SDS011;56427;51.580;4.656;2023-08-07T00:55:34;11.85;;;2.55;;
69305;SDS011;56427;51.580;4.656;2023-08-07T00:58:00;15.50;;;2.20;;
69305;SDS011;56427;51.580;4.656;2023-08-07T01:00:27;9.63;;;2.27;;
69305;SDS011;56427;51.580;4.656;2023-08-07T01:02:53;10.30;;;2.25;;
69305;SDS011;56427;51.580;4.656;2023-08-07T01:05:20;13.68;;;2.67;;
69305;SDS011;56427;51.580;4.656;2023-08-07T01:07:47;11.67;;;2.23;;
69305;SDS011;56427;51.580;4.656;2023-08-07T01:10:13;8.82;;;2.20;;
69305;SDS011;56427;51.580;4.656;2023-08-07T01:12:45;10.82;;;2.72;;
69305;SDS011;56427;51.580;4.656;2023-08-07T01:15:22;9.05;;;2.67;;
69305;SDS011;56427;51.580;4.656;2023-08-07T01:17:54;7.37;;;2.50;;
69305;SDS011;56427;51.580;4.656;2023-08-07T01:20:21;14.32;;;2.50;;
69305;SDS011;56427;51.580;4.656;2023-08-07T01:22:46;9.00;;;2.40;;
69305;SDS011;56427;51.580;4.656;2023-08-07T01:25:12;10.97;;;3.00;;
69305;SDS011;56427;51.580;4.656;2023-08-07T01:27:46;8.37;;;1.97;;
69305;SDS011;56427;51.580;4.656;2023-08-07T01:30:35;9.88;;;2.15;;
69305;SDS011;56427;51.580;4.656;2023-08-07T01:33:10;9.27;;;2.42;;
69305;SDS011;56427;51.580;4.656;2023-08-07T01:35:44;9.23;;;2.30;;
69305;SDS011;56427;51.580;4.656;2023-08-07T01:38:12;12.20;;;2.60;;
69305;SDS011;56427;51.580;4.656;2023-08-07T01:40:39;8.18;;;2.60;;
69305;SDS011;56427;51.580;4.656;2023-08-07T01:43:06;12.20;;;2.55;;
69305;SDS011;56427;51.580;4.656;2023-08-07T01:45:32;8.00;;;2.10;;
69305;SDS011;56427;51.580;4.656;2023-08-07T01:47:57;11.38;;;2.70;;
69305;SDS011;56427;51.580;4.656;2023-08-07T01:50:24;11.53;;;2.90;;
69305;SDS011;56427;51.580;4.656;2023-08-07T01:52:49;8.85;;;2.50;;
69305;SDS011;56427;51.580;4.656;2023-08-07T01:55:16;14.83;;;2.10;;
69305;SDS011;56427;51.580;4.656;2023-08-07T01:57:42;14.85;;;2.92;;
69305;SDS011;56427;51.580;4.656;2023-08-07T02:00:08;8.03;;;2.53;;
69305;SDS011;56427;51.580;4.656;2023-08-07T02:02:34;18.00;;;3.10;;
69305;SDS011;56427;51.580;4.656;2023-08-07T02:05:00;9.90;;;2.53;;
69305;SDS011;56427;51.580;4.656;2023-08-07T02:07:25;12.50;;;2.93;;
69305;SDS011;56427;51.580;4.656;2023-08-07T02:09:50;14.43;;;2.97;;
69305;SDS011;56427;51.580;4.656;2023-08-07T02:12:16;10.13;;;2.73;;
69305;SDS011;56427;51.580;4.656;2023-08-07T02:14:41;11.18;;;2.50;;
69305;SDS011;56427;51.580;4.656;2023-08-07T02:17:06;10.13;;;2.50;;
69305;SDS011;56427;51.580;4.656;2023-08-07T02:19:32;8.97;;;2.50;;
69305;SDS011;56427;51.580;4.656;2023-08-07T02:21:57;11.27;;;2.87;;
69305;SDS011;56427;51.580;4.656;2023-08-07T02:24:23;9.70;;;2.40;;
69305;SDS011;56427;51.580;4.656;2023-08-07T02:26:48;7.75;;;2.42;;
69305;SDS011;56427;51.580;4.656;2023-08-07T02:29:13;12.03;;;2.87;;
69305;SDS011;56427;51.580;4.656;2023-08-07T02:31:39;18.93;;;3.83;;
69305;SDS011;56427;51.580;4.656;2023-08-07T02:34:04;11.40;;;2.67;;
69305;SDS011;56427;51.580;4.656;2023-08-07T02:36:29;11.03;;;2.70;;
69305;SDS011;56427;51.580;4.656;2023-08-07T02:38:55;11.60;;;2.80;;
69305;SDS011;56427;51.580;4.656;2023-08-07T02:41:20;12.00;;;2.87;;
69305;SDS011;56427;51.580;4.656;2023-08-07T02:43:45;9.47;;;2.70;;
69305;SDS011;56427;51.580;4.656;2023-08-07T02:46:11;13.23;;;2.77;;
69305;SDS011;56427;51.580;4.656;2023-08-07T02:48:36;11.07;;;2.93;;
69305;SDS011;56427;51.580;4.656;2023-08-07T02:51:02;10.50;;;2.80;;
69305;SDS011;56427;51.580;4.656;2023-08-07T02:53:27;11.38;;;2.47;;
69305;SDS011;56427;51.580;4.656;2023-08-07T02:55:53;12.57;;;2.77;;
69305;SDS011;56427;51.580;4.656;2023-08-07T02:58:18;10.27;;;2.80;;
69305;SDS011;56427;51.580;4.656;2023-08-07T03:00:44;7.40;;;2.10;;
69305;SDS011;56427;51.580;4.656;2023-08-07T03:03:09;6.80;;;2.60;;
69305;SDS011;56427;51.580;4.656;2023-08-07T03:05:35;9.97;;;2.40;;
69305;SDS011;56427;51.580;4.656;2023-08-07T03:08:00;10.47;;;3.23;;
69305;SDS011;56427;51.580;4.656;2023-08-07T03:10:25;10.30;;;2.67;;
69305;SDS011;56427;51.580;4.656;2023-08-07T03:12:51;10.50;;;3.00;;
69305;SDS011;56427;51.580;4.656;2023-08-07T03:15:17;12.25;;;2.50;;
69305;SDS011;56427;51.580;4.656;2023-08-07T03:17:42;13.07;;;2.37;;
69305;SDS011;56427;51.580;4.656;2023-08-07T03:20:08;8.33;;;2.97;;
69305;SDS011;56427;51.580;4.656;2023-08-07T03:22:34;11.40;;;3.00;;
69305;SDS011;56427;51.580;4.656;2023-08-07T03:25:00;6.00;;;2.30;;
69305;SDS011;56427;51.580;4.656;2023-08-07T03:27:25;10.03;;;2.80;;
69305;SDS011;56427;51.580;4.656;2023-08-07T03:29:50;15.33;;;2.90;;
69305;SDS011;56427;51.580;4.656;2023-08-07T03:32:16;9.80;;;2.50;;
69305;SDS011;56427;51.580;4.656;2023-08-07T03:34:42;9.30;;;2.25;;
69305;SDS011;56427;51.580;4.656;2023-08-07T03:37:07;9.17;;;2.73;;
69305;SDS011;56427;51.580;4.656;2023-08-07T03:39:32;12.30;;;2.63;;
69305;SDS011;56427;51.580;4.656;2023-08-07T03:41:58;10.23;;;2.73;;
69305;SDS011;56427;51.580;4.656;2023-08-07T03:44:23;9.13;;;2.80;;
69305;SDS011;56427;51.580;4.656;2023-08-07T03:46:48;6.73;;;2.57;;
69305;SDS011;56427;51.580;4.656;2023-08-07T03:49:14;8.48;;;2.35;;
69305;SDS011;56427;51.580;4.656;2023-08-07T03:51:39;8.63;;;2.80;;
69305;SDS011;56427;51.580;4.656;2023-08-07T03:54:04;10.30;;;2.50;;
69305;SDS011;56427;51.580;4.656;2023-08-07T03:56:30;12.00;;;2.80;;
69305;SDS011;56427;51.580;4.656;2023-08-07T03:59:03;16.63;;;3.40;;
69305;SDS011;56427;51.580;4.656;2023-08-07T04:01:28;9.18;;;2.70;;
69305;SDS011;56427;51.580;4.656;2023-08-07T04:03:54;16.97;;;2.53;;
69305;SDS011;56427;51.580;4.656;2023-08-07T04:06:19;13.50;;;2.70;;
69305;SDS011;56427;51.580;4.656;2023-08-07T04:08:46;10.32;;;2.67;;
69305;SDS011;56427;51.580;4.656;2023-08-07T04:11:12;10.17;;;2.60;;
69305;SDS011;56427;51.580;4.656;2023-08-07T04:13:37;9.20;;;2.37;;
69305;SDS011;56427;51.580;4.656;2023-08-07T04:16:03;12.07;;;2.67;;
69305;SDS011;56427;51.580;4.656;2023-08-07T04:18:29;13.20;;;2.73;;
69305;SDS011;56427;51.580;4.656;2023-08-07T04:20:55;9.25;;;2.22;;
69305;SDS011;56427;51.580;4.656;2023-08-07T04:23:24;12.52;;;2.33;;
69305;SDS011;56427;51.580;4.656;2023-08-07T04:25:50;10.77;;;2.07;;
69305;SDS011;56427;51.580;4.656;2023-08-07T04:28:17;11.02;;;2.35;;
69305;SDS011;56427;51.580;4.656;2023-08-07T04:30:42;9.90;;;2.38;;
69305;SDS011;56427;51.580;4.656;2023-08-07T04:33:08;7.37;;;1.67;;
69305;SDS011;56427;51.580;4.656;2023-08-07T04:35:34;8.32;;;2.03;;
69305;SDS011;56427;51.580;4.656;2023-08-07T04:38:00;9.17;;;2.43;;
69305;SDS011;56427;51.580;4.656;2023-08-07T04:40:26;10.05;;;2.28;;
69305;SDS011;56427;51.580;4.656;2023-08-07T04:42:51;11.10;;;1.80;;
69305;SDS011;56427;51.580;4.656;2023-08-07T04:45:17;7.97;;;2.03;;
69305;SDS011;56427;51.580;4.656;2023-08-07T04:47:42;10.67;;;2.60;;
69305;SDS011;56427;51.580;4.656;2023-08-07T04:50:08;5.60;;;1.40;;
69305;SDS011;56427;51.580;4.656;2023-08-07T04:52:34;10.10;;;2.00;;
69305;SDS011;56427;51.580;4.656;2023-08-07T04:54:59;9.82;;;1.80;;
69305;SDS011;56427;51.580;4.656;2023-08-07T04:57:25;7.83;;;1.80;;
69305;SDS011;56427;51.580;4.656;2023-08-07T04:59:51;7.68;;;2.00;;
69305;SDS011;56427;51.580;4.656;2023-08-07T05:02:17;8.17;;;2.00;;
69305;SDS011;56427;51.580;4.656;2023-08-07T05:04:42;13.25;;;2.22;;
69305;SDS011;56427;51.580;4.656;2023-08-07T05:07:10;10.63;;;1.88;;
69305;SDS011;56427;51.580;4.656;2023-08-07T05:09:36;12.73;;;1.97;;
69305;SDS011;56427;51.580;4.656;2023-08-07T05:12:01;4.90;;;1.60;;
69305;SDS011;56427;51.580;4.656;2023-08-07T05:14:27;8.33;;;1.80;;
69305;SDS011;56427;51.580;4.656;2023-08-07T05:16:54;9.00;;;1.80;;
69305;SDS011;56427;51.580;4.656;2023-08-07T05:19:19;8.40;;;1.90;;
69305;SDS011;56427;51.580;4.656;2023-08-07T05:21:45;5.93;;;1.80;;
69305;SDS011;56427;51.580;4.656;2023-08-07T05:24:14;10.95;;;2.30;;
69305;SDS011;56427;51.580;4.656;2023-08-07T05:26:40;10.30;;;2.80;;
69305;SDS011;56427;51.580;4.656;2023-08-07T05:29:05;12.03;;;2.40;;
69305;SDS011;56427;51.580;4.656;2023-08-07T05:31:32;10.23;;;2.50;;
69305;SDS011;56427;51.580;4.656;2023-08-07T05:33:57;14.70;;;2.27;;
69305;SDS011;56427;51.580;4.656;2023-08-07T05:36:22;6.90;;;1.80;;
69305;SDS011;56427;51.580;4.656;2023-08-07T05:38:48;8.20;;;1.70;;
69305;SDS011;56427;51.580;4.656;2023-08-07T05:41:13;5.80;;;1.50;;
69305;SDS011;56427;51.580;4.656;2023-08-07T05:43:38;5.23;;;1.50;;
69305;SDS011;56427;51.580;4.656;2023-08-07T05:46:04;9.23;;;2.00;;
69305;SDS011;56427;51.580;4.656;2023-08-07T05:48:29;7.22;;;1.65;;
69305;SDS011;56427;51.580;4.656;2023-08-07T05:50:55;8.03;;;1.50;;
69305;SDS011;56427;51.580;4.656;2023-08-07T05:53:20;7.50;;;1.70;;
69305;SDS011;56427;51.580;4.656;2023-08-07T05:55:45;6.53;;;1.80;;
69305;SDS011;56427;51.580;4.656;2023-08-07T05:58:11;9.20;;;1.77;;
69305;SDS011;56427;51.580;4.656;2023-08-07T06:00:36;6.90;;;2.00;;
69305;SDS011;56427;51.580;4.656;2023-08-07T06:03:02;8.32;;;2.28;;
69305;SDS011;56427;51.580;4.656;2023-08-07T06:05:27;7.10;;;2.03;;
69305;SDS011;56427;51.580;4.656;2023-08-07T06:07:53;9.77;;;2.23;;
69305;SDS011;56427;51.580;4.656;2023-08-07T06:10:18;9.37;;;2.00;;
69305;SDS011;56427;51.580;4.656;2023-08-07T06:12:44;9.37;;;1.97;;
69305;SDS011;56427;51.580;4.656;2023-08-07T06:15:09;13.13;;;2.57;;
69305;SDS011;56427;51.580;4.656;2023-08-07T06:17:35;10.05;;;2.10;;
69305;SDS011;56427;51.580;4.656;2023-08-07T06:20:00;9.77;;;1.90;;
69305;SDS011;56427;51.580;4.656;2023-08-07T06:22:25;9.87;;;2.20;;
69305;SDS011;56427;51.580;4.656;2023-08-07T06:24:51;7.30;;;1.90;;
69305;SDS011;56427;51.580;4.656;2023-08-07T06:27:16;12.88;;;1.98;;
69305;SDS011;56427;51.580;4.656;2023-08-07T06:29:42;10.37;;;2.37;;
69305;SDS011;56427;51.580;4.656;2023-08-07T06:32:07;7.30;;;1.33;;
69305;SDS011;56427;51.580;4.656;2023-08-07T06:34:32;9.33;;;1.60;;
69305;SDS011;56427;51.580;4.656;2023-08-07T06:37:00;8.60;;;1.88;;
69305;SDS011;56427;51.580;4.656;2023-08-07T06:39:25;7.07;;;1.73;;
69305;SDS011;56427;51.580;4.656;2023-08-07T06:41:51;9.82;;;1.83;;
69305;SDS011;56427;51.580;4.656;2023-08-07T06:44:16;13.37;;;2.20;;
69305;SDS011;56427;51.580;4.656;2023-08-07T06:46:42;9.17;;;1.97;;
69305;SDS011;56427;51.580;4.656;2023-08-07T06:49:07;8.77;;;1.80;;
69305;SDS011;56427;51.580;4.656;2023-08-07T06:51:32;8.73;;;1.77;;
69305;SDS011;56427;51.580;4.656;2023-08-07T06:53:58;9.02;;;1.73;;
69305;SDS011;56427;51.580;4.656;2023-08-07T06:56:23;11.03;;;1.80;;
69305;SDS011;56427;51.580;4.656;2023-08-07T06:58:48;8.53;;;2.10;;
69305;SDS011;56427;51.580;4.656;2023-08-07T07:01:14;6.68;;;1.67;;
69305;SDS011;56427;51.580;4.656;2023-08-07T07:03:40;10.13;;;1.73;;
69305;SDS011;56427;51.580;4.656;2023-08-07T07:06:05;6.77;;;2.10;;
69305;SDS011;56427;51.580;4.656;2023-08-07T07:08:30;10.90;;;2.03;;
69305;SDS011;56427;51.580;4.656;2023-08-07T07:10:56;6.50;;;1.90;;
69305;SDS011;56427;51.580;4.656;2023-08-07T07:13:23;9.40;;;1.70;;
69305;SDS011;56427;51.580;4.656;2023-08-07T07:15:52;7.40;;;1.63;;
69305;SDS011;56427;51.580;4.656;2023-08-07T07:18:18;11.07;;;1.90;;
69305;SDS011;56427;51.580;4.656;2023-08-07T07:20:44;8.10;;;1.50;;
69305;SDS011;56427;51.580;4.656;2023-08-07T07:23:09;9.33;;;1.53;;
69305;SDS011;56427;51.580;4.656;2023-08-07T07:25:34;7.07;;;1.53;;
69305;SDS011;56427;51.580;4.656;2023-08-07T07:28:00;8.90;;;1.73;;
69305;SDS011;56427;51.580;4.656;2023-08-07T07:30:25;11.00;;;2.40;;
69305;SDS011;56427;51.580;4.656;2023-08-07T07:32:50;4.77;;;1.60;;
69305;SDS011;56427;51.580;4.656;2023-08-07T07:35:16;7.30;;;1.90;;
69305;SDS011;56427;51.580;4.656;2023-08-07T07:37:41;9.07;;;2.00;;
69305;SDS011;56427;51.580;4.656;2023-08-07T07:40:07;8.87;;;1.97;;
69305;SDS011;56427;51.580;4.656;2023-08-07T07:42:33;5.88;;;1.83;;
69305;SDS011;56427;51.580;4.656;2023-08-07T07:44:58;8.70;;;1.90;;
69305;SDS011;56427;51.580;4.656;2023-08-07T07:47:24;8.03;;;2.00;;
69305;SDS011;56427;51.580;4.656;2023-08-07T07:50:03;6.43;;;1.63;;
69305;SDS011;56427;51.580;4.656;2023-08-07T07:52:33;7.95;;;1.80;;
69305;SDS011;56427;51.580;4.656;2023-08-07T07:54:58;10.32;;;2.17;;
69305;SDS011;56427;51.580;4.656;2023-08-07T07:57:24;9.20;;;1.97;;
69305;SDS011;56427;51.580;4.656;2023-08-07T07:59:49;9.50;;;2.17;;
69305;SDS011;56427;51.580;4.656;2023-08-07T08:02:15;8.73;;;1.93;;
69305;SDS011;56427;51.580;4.656;2023-08-07T08:04:42;7.13;;;1.80;;
69305;SDS011;56427;51.580;4.656;2023-08-07T08:07:07;6.47;;;1.70;;
69305;SDS011;56427;51.580;4.656;2023-08-07T08:09:32;8.25;;;1.85;;
69305;SDS011;56427;51.580;4.656;2023-08-07T08:11:59;6.67;;;2.00;;
69305;SDS011;56427;51.580;4.656;2023-08-07T08:14:24;9.82;;;2.20;;
69305;SDS011;56427;51.580;4.656;2023-08-07T08:16:49;9.47;;;1.73;;
69305;SDS011;56427;51.580;4.656;2023-08-07T08:19:15;6.77;;;2.10;;
69305;SDS011;56427;51.580;4.656;2023-08-07T08:21:41;7.63;;;1.98;;
69305;SDS011;56427;51.580;4.656;2023-08-07T08:24:07;12.00;;;1.93;;
69305;SDS011;56427;51.580;4.656;2023-08-07T08:26:32;7.32;;;2.05;;
69305;SDS011;56427;51.580;4.656;2023-08-07T08:28:58;9.63;;;1.90;;
69305;SDS011;56427;51.580;4.656;2023-08-07T08:31:23;8.47;;;2.30;;
69305;SDS011;56427;51.580;4.656;2023-08-07T08:33:49;10.37;;;2.33;;
69305;SDS011;56427;51.580;4.656;2023-08-07T08:36:15;6.18;;;1.80;;
69305;SDS011;56427;51.580;4.656;2023-08-07T08:38:40;6.47;;;2.07;;
69305;SDS011;56427;51.580;4.656;2023-08-07T08:41:05;7.70;;;2.00;;
69305;SDS011;56427;51.580;4.656;2023-08-07T08:43:34;8.35;;;1.90;;
69305;SDS011;56427;51.580;4.656;2023-08-07T08:46:03;9.95;;;2.45;;
69305;SDS011;56427;51.580;4.656;2023-08-07T08:48:30;5.95;;;1.80;;
69305;SDS011;56427;51.580;4.656;2023-08-07T08:50:59;5.22;;;1.90;;
69305;SDS011;56427;51.580;4.656;2023-08-07T08:53:25;11.20;;;2.17;;
69305;SDS011;56427;51.580;4.656;2023-08-07T08:55:53;6.95;;;1.83;;
69305;SDS011;56427;51.580;4.656;2023-08-07T08:58:19;8.33;;;1.80;;
69305;SDS011;56427;51.580;4.656;2023-08-07T09:00:46;6.50;;;2.20;;
69305;SDS011;56427;51.580;4.656;2023-08-07T09:03:12;9.73;;;2.03;;
69305;SDS011;56427;51.580;4.656;2023-08-07T09:05:38;6.20;;;1.75;;
69305;SDS011;56427;51.580;4.656;2023-08-07T09:08:04;10.23;;;2.10;;
69305;SDS011;56427;51.580;4.656;2023-08-07T09:10:31;9.10;;;2.10;;
69305;SDS011;56427;51.580;4.656;2023-08-07T09:13:01;7.18;;;1.88;;
69305;SDS011;56427;51.580;4.656;2023-08-07T09:15:30;5.85;;;1.52;;
69305;SDS011;56427;51.580;4.656;2023-08-07T09:17:56;6.63;;;1.80;;
69305;SDS011;56427;51.580;4.656;2023-08-07T09:20:24;6.33;;;1.80;;
69305;SDS011;56427;51.580;4.656;2023-08-07T09:22:50;8.32;;;2.30;;
69305;SDS011;56427;51.580;4.656;2023-08-07T09:25:26;10.95;;;1.80;;
69305;SDS011;56427;51.580;4.656;2023-08-07T09:28:01;8.02;;;1.70;;
69305;SDS011;56427;51.580;4.656;2023-08-07T09:30:31;7.97;;;2.30;;
69305;SDS011;56427;51.580;4.656;2023-08-07T09:32:59;6.53;;;1.98;;
69305;SDS011;56427;51.580;4.656;2023-08-07T09:35:25;9.52;;;3.38;;
69305;SDS011;56427;51.580;4.656;2023-08-07T09:37:51;4.93;;;2.03;;
69305;SDS011;56427;51.580;4.656;2023-08-07T09:40:17;8.20;;;1.90;;
69305;SDS011;56427;51.580;4.656;2023-08-07T09:42:43;6.72;;;2.03;;
69305;SDS011;56427;51.580;4.656;2023-08-07T09:45:25;6.97;;;1.73;;
69305;SDS011;56427;51.580;4.656;2023-08-07T09:48:01;6.95;;;2.03;;
69305;SDS011;56427;51.580;4.656;2023-08-07T09:50:33;5.32;;;1.88;;
69305;SDS011;56427;51.580;4.656;2023-08-07T09:52:58;9.10;;;2.67;;
69305;SDS011;56427;51.580;4.656;2023-08-07T09:55:24;7.93;;;2.10;;
69305;SDS011;56427;51.580;4.656;2023-08-07T09:57:51;8.27;;;2.30;;
69305;SDS011;56427;51.580;4.656;2023-08-07T10:00:17;8.45;;;2.03;;
69305;SDS011;56427;51.580;4.656;2023-08-07T10:02:45;7.82;;;2.00;;
69305;SDS011;56427;51.580;4.656;2023-08-07T10:05:11;7.50;;;2.15;;
69305;SDS011;56427;51.580;4.656;2023-08-07T10:07:38;8.33;;;2.20;;
69305;SDS011;56427;51.580;4.656;2023-08-07T10:10:04;6.72;;;2.13;;
69305;SDS011;56427;51.580;4.656;2023-08-07T10:12:30;8.27;;;2.28;;
69305;SDS011;56427;51.580;4.656;2023-08-07T10:14:56;7.22;;;2.35;;
69305;SDS011;56427;51.580;4.656;2023-08-07T10:17:23;7.28;;;2.20;;
69305;SDS011;56427;51.580;4.656;2023-08-07T10:19:51;9.43;;;2.37;;
69305;SDS011;56427;51.580;4.656;2023-08-07T10:22:20;8.27;;;2.60;;
69305;SDS011;56427;51.580;4.656;2023-08-07T10:24:48;8.20;;;2.20;;
69305;SDS011;56427;51.580;4.656;2023-08-07T10:27:18;9.03;;;2.83;;
69305;SDS011;56427;51.580;4.656;2023-08-07T10:29:47;9.90;;;2.15;;
69305;SDS011;56427;51.580;4.656;2023-08-07T10:32:14;7.90;;;2.78;;
69305;SDS011;56427;51.580;4.656;2023-08-07T10:34:46;10.18;;;2.33;;
69305;SDS011;56427;51.580;4.656;2023-08-07T10:40:09;7.17;;;2.30;;
69305;SDS011;56427;51.580;4.656;2023-08-07T10:45:18;7.60;;;2.58;;
69305;SDS011;56427;51.580;4.656;2023-08-07T10:47:56;7.75;;;2.40;;
69305;SDS011;56427;51.580;4.656;2023-08-07T10:50:32;9.25;;;2.80;;
69305;SDS011;56427;51.580;4.656;2023-08-07T10:55:56;7.78;;;3.10;;
69305;SDS011;56427;51.580;4.656;2023-08-07T11:00:49;8.02;;;2.65;;
69305;SDS011;56427;51.580;4.656;2023-08-07T11:03:27;10.65;;;2.75;;
69305;SDS011;56427;51.580;4.656;2023-08-07T11:05:53;7.03;;;2.40;;
69305;SDS011;56427;51.580;4.656;2023-08-07T11:08:22;6.40;;;2.42;;
69305;SDS011;56427;51.580;4.656;2023-08-07T11:10:49;7.13;;;2.30;;
69305;SDS011;56427;51.580;4.656;2023-08-07T11:13:16;8.02;;;2.33;;
69305;SDS011;56427;51.580;4.656;2023-08-07T11:15:41;6.97;;;2.60;;
69305;SDS011;56427;51.580;4.656;2023-08-07T11:18:07;7.83;;;2.20;;
69305;SDS011;56427;51.580;4.656;2023-08-07T11:20:32;10.57;;;2.63;;
69305;SDS011;56427;51.580;4.656;2023-08-07T11:23:00;9.57;;;2.40;;
69305;SDS011;56427;51.580;4.656;2023-08-07T11:25:26;8.27;;;2.78;;
69305;SDS011;56427;51.580;4.656;2023-08-07T11:27:51;7.87;;;2.70;;
69305;SDS011;56427;51.580;4.656;2023-08-07T11:30:17;6.65;;;2.67;;
69305;SDS011;56427;51.580;4.656;2023-08-07T11:32:42;8.67;;;2.90;;
69305;SDS011;56427;51.580;4.656;2023-08-07T11:35:08;6.80;;;2.40;;
69305;SDS011;56427;51.580;4.656;2023-08-07T11:37:33;6.97;;;2.45;;
69305;SDS011;56427;51.580;4.656;2023-08-07T11:40:02;8.18;;;2.10;;
69305;SDS011;56427;51.580;4.656;2023-08-07T11:42:28;9.73;;;2.40;;
69305;SDS011;56427;51.580;4.656;2023-08-07T11:44:53;8.20;;;2.60;;
69305;SDS011;56427;51.580;4.656;2023-08-07T11:47:19;6.60;;;2.40;;
69305;SDS011;56427;51.580;4.656;2023-08-07T11:49:45;6.97;;;1.80;;
69305;SDS011;56427;51.580;4.656;2023-08-07T11:52:11;11.18;;;2.38;;
69305;SDS011;56427;51.580;4.656;2023-08-07T11:54:38;7.33;;;2.43;;
69305;SDS011;56427;51.580;4.656;2023-08-07T11:57:14;4.53;;;2.08;;
69305;SDS011;56427;51.580;4.656;2023-08-07T11:59:40;5.90;;;1.70;;
69305;SDS011;56427;51.580;4.656;2023-08-07T12:02:09;3.33;;;1.35;;
69305;SDS011;56427;51.580;4.656;2023-08-07T12:04:36;3.47;;;1.70;;
69305;SDS011;56427;51.580;4.656;2023-08-07T12:07:02;3.83;;;1.90;;
69305;SDS011;56427;51.580;4.656;2023-08-07T12:09:27;5.97;;;1.70;;
69305;SDS011;56427;51.580;4.656;2023-08-07T12:11:59;6.33;;;1.87;;
69305;SDS011;56427;51.580;4.656;2023-08-07T12:14:28;3.92;;;1.60;;
69305;SDS011;56427;51.580;4.656;2023-08-07T12:16:54;6.90;;;1.92;;
69305;SDS011;56427;51.580;4.656;2023-08-07T12:19:19;9.57;;;2.47;;
69305;SDS011;56427;51.580;4.656;2023-08-07T12:21:45;6.20;;;2.10;;
69305;SDS011;56427;51.580;4.656;2023-08-07T12:24:10;4.00;;;1.50;;
69305;SDS011;56427;51.580;4.656;2023-08-07T12:26:38;5.43;;;1.70;;
69305;SDS011;56427;51.580;4.656;2023-08-07T12:29:03;5.00;;;1.52;;
69305;SDS011;56427;51.580;4.656;2023-08-07T12:31:29;6.67;;;2.20;;
69305;SDS011;56427;51.580;4.656;2023-08-07T12:33:54;7.20;;;1.90;;
69305;SDS011;56427;51.580;4.656;2023-08-07T12:36:19;6.70;;;1.87;;
69305;SDS011;56427;51.580;4.656;2023-08-07T12:38:45;8.63;;;1.80;;
69305;SDS011;56427;51.580;4.656;2023-08-07T12:41:10;7.50;;;1.90;;
69305;SDS011;56427;51.580;4.656;2023-08-07T12:43:36;4.23;;;1.73;;
69305;SDS011;56427;51.580;4.656;2023-08-07T12:46:01;5.40;;;2.17;;
69305;SDS011;56427;51.580;4.656;2023-08-07T12:48:26;3.37;;;1.50;;
69305;SDS011;56427;51.580;4.656;2023-08-07T12:50:53;5.22;;;2.00;;
69305;SDS011;56427;51.580;4.656;2023-08-07T12:53:19;5.78;;;2.00;;
69305;SDS011;56427;51.580;4.656;2023-08-07T12:55:44;4.17;;;1.60;;
69305;SDS011;56427;51.580;4.656;2023-08-07T12:58:10;4.72;;;1.80;;
69305;SDS011;56427;51.580;4.656;2023-08-07T13:00:36;5.90;;;1.90;;
69305;SDS011;56427;51.580;4.656;2023-08-07T13:03:01;3.10;;;1.37;;
69305;SDS011;56427;51.580;4.656;2023-08-07T13:05:27;3.30;;;1.50;;
69305;SDS011;56427;51.580;4.656;2023-08-07T13:07:53;5.90;;;1.63;;
69305;SDS011;56427;51.580;4.656;2023-08-07T13:10:19;4.43;;;1.90;;
69305;SDS011;56427;51.580;4.656;2023-08-07T13:12:46;4.55;;;1.60;;
69305;SDS011;56427;51.580;4.656;2023-08-07T13:15:13;5.00;;;1.50;;
69305;SDS011;56427;51.580;4.656;2023-08-07T13:17:40;3.65;;;1.52;;
69305;SDS011;56427;51.580;4.656;2023-08-07T13:20:07;4.37;;;1.60;;
69305;SDS011;56427;51.580;4.656;2023-08-07T13:22:42;3.88;;;1.80;;
69305;SDS011;56427;51.580;4.656;2023-08-07T13:25:09;7.13;;;1.77;;
69305;SDS011;56427;51.580;4.656;2023-08-07T13:27:35;5.63;;;1.70;;
69305;SDS011;56427;51.580;4.656;2023-08-07T13:30:03;5.47;;;1.80;;
69305;SDS011;56427;51.580;4.656;2023-08-07T13:32:28;4.87;;;1.70;;
69305;SDS011;56427;51.580;4.656;2023-08-07T13:34:54;3.63;;;1.85;;
69305;SDS011;56427;51.580;4.656;2023-08-07T13:37:20;3.70;;;1.60;;
69305;SDS011;56427;51.580;4.656;2023-08-07T13:39:46;4.40;;;1.80;;
69305;SDS011;56427;51.580;4.656;2023-08-07T13:42:14;3.40;;;1.83;;
69305;SDS011;56427;51.580;4.656;2023-08-07T13:44:40;5.40;;;1.60;;
69305;SDS011;56427;51.580;4.656;2023-08-07T13:47:05;4.40;;;1.80;;
69305;SDS011;56427;51.580;4.656;2023-08-07T13:49:31;7.32;;;1.63;;
69305;SDS011;56427;51.580;4.656;2023-08-07T13:51:57;4.23;;;1.70;;
69305;SDS011;56427;51.580;4.656;2023-08-07T13:54:22;3.77;;;1.90;;
69305;SDS011;56427;51.580;4.656;2023-08-07T13:56:48;5.20;;;1.90;;
69305;SDS011;56427;51.580;4.656;2023-08-07T13:59:13;3.77;;;1.70;;
69305;SDS011;56427;51.580;4.656;2023-08-07T14:01:39;5.30;;;2.03;;
69305;SDS011;56427;51.580;4.656;2023-08-07T14:04:04;4.97;;;2.00;;
69305;SDS011;56427;51.580;4.656;2023-08-07T14:06:30;3.72;;;1.50;;
69305;SDS011;56427;51.580;4.656;2023-08-07T14:08:56;4.93;;;1.63;;
69305;SDS011;56427;51.580;4.656;2023-08-07T14:11:21;5.50;;;1.77;;
69305;SDS011;56427;51.580;4.656;2023-08-07T14:13:49;4.28;;;1.80;;
69305;SDS011;56427;51.580;4.656;2023-08-07T14:16:15;3.90;;;1.55;;
69305;SDS011;56427;51.580;4.656;2023-08-07T14:18:40;4.47;;;1.70;;
69305;SDS011;56427;51.580;4.656;2023-08-07T14:21:06;7.43;;;1.90;;
69305;SDS011;56427;51.580;4.656;2023-08-07T14:23:31;7.50;;;1.70;;
69305;SDS011;56427;51.580;4.656;2023-08-07T14:25:57;6.63;;;2.13;;
69305;SDS011;56427;51.580;4.656;2023-08-07T14:28:22;4.10;;;1.83;;
69305;SDS011;56427;51.580;4.656;2023-08-07T14:30:48;5.47;;;1.70;;
69305;SDS011;56427;51.580;4.656;2023-08-07T14:33:13;7.95;;;1.70;;
69305;SDS011;56427;51.580;4.656;2023-08-07T14:35:39;4.73;;;1.70;;
69305;SDS011;56427;51.580;4.656;2023-08-07T14:38:04;5.32;;;1.80;;
69305;SDS011;56427;51.580;4.656;2023-08-07T14:40:30;4.23;;;1.67;;
69305;SDS011;56427;51.580;4.656;2023-08-07T14:42:55;4.83;;;1.60;;
69305;SDS011;56427;51.580;4.656;2023-08-07T14:45:21;3.33;;;1.60;;
69305;SDS011;56427;51.580;4.656;2023-08-07T14:47:48;6.17;;;1.60;;
69305;SDS011;56427;51.580;4.656;2023-08-07T14:50:14;5.93;;;1.50;;